Terminal Aerodrome Forecast
Issued by NWS Wilmington, NC

Home | Current Version | Previous Version | Text Only | Print | Product List | Glossary On
Versions: 1 2 3 4 5 6 7 8 9 10 11 12
721
FTUS42 KILM 210526
TAFMYR
TAF
KMYR 210526Z 2106/2206 09006KT P6SM SCT250
     FM211700 11010KT P6SM FEW250
     FM220000 07006KT P6SM BKN250
      AMD LTD TO CLD VIS AND WIND TIL 211100=

USA.gov is the U.S. government's official web portal to all federal, state and local government web resources and services.